sensor_id;sensor_type;location;lat;lon;timestamp;pressure;altitude;pressure_sealevel;temperature;humidity
16613;BME280;8419;52.358;9.752;2022-12-28T00:01:06;101198.00;;;15.51;37.24
16613;BME280;8419;52.358;9.752;2022-12-28T00:03:52;101194.00;;;15.53;37.28
16613;BME280;8419;52.358;9.752;2022-12-28T00:06:37;101189.00;;;15.54;37.18
16613;BME280;8419;52.358;9.752;2022-12-28T00:09:23;101183.00;;;15.53;37.17
16613;BME280;8419;52.358;9.752;2022-12-28T00:12:08;101174.00;;;15.52;37.16
16613;BME280;8419;52.358;9.752;2022-12-28T00:14:53;101158.00;;;15.52;37.09
16613;BME280;8419;52.358;9.752;2022-12-28T00:17:38;101159.00;;;15.49;37.07
16613;BME280;8419;52.358;9.752;2022-12-28T00:20:23;101157.00;;;15.47;37.05
16613;BME280;8419;52.358;9.752;2022-12-28T00:23:09;101140.00;;;15.40;37.11
16613;BME280;8419;52.358;9.752;2022-12-28T00:25:54;101138.00;;;15.34;37.18
16613;BME280;8419;52.358;9.752;2022-12-28T00:28:39;101132.00;;;15.27;37.23
16613;BME280;8419;52.358;9.752;2022-12-28T00:31:25;101127.00;;;15.24;37.23
16613;BME280;8419;52.358;9.752;2022-12-28T00:34:10;101129.00;;;15.22;37.19
16613;BME280;8419;52.358;9.752;2022-12-28T00:36:55;101119.00;;;15.13;37.26
16613;BME280;8419;52.358;9.752;2022-12-28T00:39:41;101113.00;;;15.14;37.26
16613;BME280;8419;52.358;9.752;2022-12-28T00:42:27;101118.00;;;15.11;37.25
16613;BME280;8419;52.358;9.752;2022-12-28T00:45:12;101121.00;;;15.06;37.27
16613;BME280;8419;52.358;9.752;2022-12-28T00:47:57;101113.00;;;15.07;37.30
16613;BME280;8419;52.358;9.752;2022-12-28T00:50:43;101108.00;;;15.10;37.26
16613;BME280;8419;52.358;9.752;2022-12-28T00:53:29;101109.00;;;15.09;37.23
16613;BME280;8419;52.358;9.752;2022-12-28T00:56:16;101093.00;;;15.10;37.11
16613;BME280;8419;52.358;9.752;2022-12-28T00:59:02;101099.00;;;15.08;37.12
16613;BME280;8419;52.358;9.752;2022-12-28T01:01:47;101084.00;;;15.11;37.00
16613;BME280;8419;52.358;9.752;2022-12-28T01:04:32;101074.00;;;15.05;37.12
16613;BME280;8419;52.358;9.752;2022-12-28T01:07:18;101072.00;;;15.06;37.09
16613;BME280;8419;52.358;9.752;2022-12-28T01:10:04;101053.00;;;15.06;37.03
16613;BME280;8419;52.358;9.752;2022-12-28T01:12:49;101060.00;;;15.07;37.05
16613;BME280;8419;52.358;9.752;2022-12-28T01:15:34;101053.00;;;15.06;37.08
16613;BME280;8419;52.358;9.752;2022-12-28T01:18:19;101045.00;;;15.07;37.05
16613;BME280;8419;52.358;9.752;2022-12-28T01:21:09;101042.00;;;15.09;37.02
16613;BME280;8419;52.358;9.752;2022-12-28T01:23:56;101047.00;;;15.14;36.94
16613;BME280;8419;52.358;9.752;2022-12-28T01:26:42;101040.00;;;15.20;36.86
16613;BME280;8419;52.358;9.752;2022-12-28T01:29:27;101042.00;;;15.21;36.87
16613;BME280;8419;52.358;9.752;2022-12-28T01:32:13;101042.00;;;15.24;36.80
16613;BME280;8419;52.358;9.752;2022-12-28T01:34:58;101049.00;;;15.28;36.75
16613;BME280;8419;52.358;9.752;2022-12-28T01:37:43;101047.00;;;15.36;36.61
16613;BME280;8419;52.358;9.752;2022-12-28T01:40:29;101055.00;;;15.42;36.54
16613;BME280;8419;52.358;9.752;2022-12-28T01:43:15;101043.00;;;15.47;36.46
16613;BME280;8419;52.358;9.752;2022-12-28T01:46:00;101050.00;;;15.49;36.40
16613;BME280;8419;52.358;9.752;2022-12-28T01:48:48;101033.00;;;15.51;36.38
16613;BME280;8419;52.358;9.752;2022-12-28T01:51:43;101015.00;;;15.52;36.40
16613;BME280;8419;52.358;9.752;2022-12-28T01:54:35;101010.00;;;15.56;36.36
16613;BME280;8419;52.358;9.752;2022-12-28T01:57:25;101006.00;;;15.55;36.36
16613;BME280;8419;52.358;9.752;2022-12-28T02:00:16;100987.00;;;15.52;36.37
16613;BME280;8419;52.358;9.752;2022-12-28T02:03:03;100988.00;;;15.51;36.41
16613;BME280;8419;52.358;9.752;2022-12-28T02:05:52;100976.00;;;15.48;36.42
16613;BME280;8419;52.358;9.752;2022-12-28T02:08:48;100964.00;;;15.48;36.40
16613;BME280;8419;52.358;9.752;2022-12-28T02:11:37;100962.00;;;15.51;36.38
16613;BME280;8419;52.358;9.752;2022-12-28T02:14:22;100952.00;;;15.50;36.40
16613;BME280;8419;52.358;9.752;2022-12-28T02:17:09;100953.00;;;15.55;36.34
16613;BME280;8419;52.358;9.752;2022-12-28T02:19:55;100951.00;;;15.59;36.27
16613;BME280;8419;52.358;9.752;2022-12-28T02:26:32;100939.00;;;15.78;36.28
16613;BME280;8419;52.358;9.752;2022-12-28T02:29:26;100933.00;;;15.73;36.30
16613;BME280;8419;52.358;9.752;2022-12-28T02:32:24;100936.00;;;15.75;36.24
16613;BME280;8419;52.358;9.752;2022-12-28T02:35:15;100928.00;;;15.78;36.22
16613;BME280;8419;52.358;9.752;2022-12-28T02:38:09;100921.00;;;15.79;36.22
16613;BME280;8419;52.358;9.752;2022-12-28T02:41:00;100924.00;;;15.80;36.20
16613;BME280;8419;52.358;9.752;2022-12-28T02:43:47;100917.00;;;15.86;36.18
16613;BME280;8419;52.358;9.752;2022-12-28T02:46:33;100918.00;;;15.87;36.19
16613;BME280;8419;52.358;9.752;2022-12-28T02:49:37;100905.00;;;15.95;36.10
16613;BME280;8419;52.358;9.752;2022-12-28T02:52:52;100908.00;;;16.01;36.09
16613;BME280;8419;52.358;9.752;2022-12-28T02:55:56;100899.00;;;16.04;36.14
16613;BME280;8419;52.358;9.752;2022-12-28T02:59:15;100896.00;;;16.08;36.15
16613;BME280;8419;52.358;9.752;2022-12-28T03:02:17;100878.00;;;16.07;36.17
16613;BME280;8419;52.358;9.752;2022-12-28T03:05:13;100890.00;;;16.09;36.11
16613;BME280;8419;52.358;9.752;2022-12-28T03:08:06;100878.00;;;16.12;36.09
16613;BME280;8419;52.358;9.752;2022-12-28T03:11:08;100883.00;;;16.13;36.09
16613;BME280;8419;52.358;9.752;2022-12-28T03:13:58;100882.00;;;16.14;36.07
16613;BME280;8419;52.358;9.752;2022-12-28T03:16:47;100869.00;;;16.16;36.12
16613;BME280;8419;52.358;9.752;2022-12-28T03:19:56;100864.00;;;16.16;36.17
16613;BME280;8419;52.358;9.752;2022-12-28T03:23:02;100847.00;;;16.17;36.15
16613;BME280;8419;52.358;9.752;2022-12-28T03:26:10;100845.00;;;16.16;36.23
16613;BME280;8419;52.358;9.752;2022-12-28T03:29:18;100837.00;;;16.17;36.24
16613;BME280;8419;52.358;9.752;2022-12-28T03:32:23;100834.00;;;16.17;36.33
16613;BME280;8419;52.358;9.752;2022-12-28T03:35:09;100831.00;;;16.15;36.40
16613;BME280;8419;52.358;9.752;2022-12-28T03:37:58;100827.00;;;16.15;36.42
16613;BME280;8419;52.358;9.752;2022-12-28T03:40:47;100817.00;;;16.15;36.51
16613;BME280;8419;52.358;9.752;2022-12-28T03:43:37;100814.00;;;16.13;36.57
16613;BME280;8419;52.358;9.752;2022-12-28T03:46:30;100801.00;;;16.15;36.61
16613;BME280;8419;52.358;9.752;2022-12-28T03:49:20;100795.00;;;16.11;36.69
16613;BME280;8419;52.358;9.752;2022-12-28T03:52:07;100799.00;;;16.14;36.71
16613;BME280;8419;52.358;9.752;2022-12-28T03:54:53;100787.00;;;16.11;36.80
16613;BME280;8419;52.358;9.752;2022-12-28T03:57:39;100784.00;;;15.98;37.04
16613;BME280;8419;52.358;9.752;2022-12-28T04:00:24;100772.00;;;15.95;37.17
16613;BME280;8419;52.358;9.752;2022-12-28T04:03:10;100765.00;;;15.94;37.28
16613;BME280;8419;52.358;9.752;2022-12-28T04:05:56;100759.00;;;15.92;37.35
16613;BME280;8419;52.358;9.752;2022-12-28T04:08:42;100752.00;;;15.88;37.44
16613;BME280;8419;52.358;9.752;2022-12-28T04:11:27;100736.00;;;15.89;37.44
16613;BME280;8419;52.358;9.752;2022-12-28T04:14:13;100732.00;;;15.93;37.41
16613;BME280;8419;52.358;9.752;2022-12-28T04:16:58;100723.00;;;15.94;37.47
16613;BME280;8419;52.358;9.752;2022-12-28T04:19:43;100713.00;;;15.94;37.51
16613;BME280;8419;52.358;9.752;2022-12-28T04:22:29;100698.00;;;15.98;37.49
16613;BME280;8419;52.358;9.752;2022-12-28T04:25:15;100694.00;;;15.99;37.50
16613;BME280;8419;52.358;9.752;2022-12-28T04:28:00;100692.00;;;15.98;37.56
16613;BME280;8419;52.358;9.752;2022-12-28T04:30:45;100677.00;;;16.13;37.37
16613;BME280;8419;52.358;9.752;2022-12-28T04:33:32;100672.00;;;16.16;37.35
16613;BME280;8419;52.358;9.752;2022-12-28T04:36:18;100663.00;;;16.15;37.40
16613;BME280;8419;52.358;9.752;2022-12-28T04:39:04;100658.00;;;16.16;37.41
16613;BME280;8419;52.358;9.752;2022-12-28T04:41:49;100651.00;;;16.19;37.44
16613;BME280;8419;52.358;9.752;2022-12-28T04:44:35;100662.00;;;16.23;37.40
16613;BME280;8419;52.358;9.752;2022-12-28T04:47:20;100645.00;;;16.20;37.46
16613;BME280;8419;52.358;9.752;2022-12-28T04:50:07;100641.00;;;16.18;37.54
16613;BME280;8419;52.358;9.752;2022-12-28T04:52:52;100643.00;;;16.21;37.54
16613;BME280;8419;52.358;9.752;2022-12-28T04:55:38;100639.00;;;16.24;37.56
16613;BME280;8419;52.358;9.752;2022-12-28T04:58:23;100625.00;;;16.28;37.59
16613;BME280;8419;52.358;9.752;2022-12-28T05:01:09;100642.00;;;16.32;37.55
16613;BME280;8419;52.358;9.752;2022-12-28T05:03:55;100631.00;;;16.36;37.52
16613;BME280;8419;52.358;9.752;2022-12-28T05:06:40;100630.00;;;16.42;37.50
16613;BME280;8419;52.358;9.752;2022-12-28T05:09:26;100621.00;;;16.44;37.53
16613;BME280;8419;52.358;9.752;2022-12-28T05:12:11;100617.00;;;16.39;37.67
16613;BME280;8419;52.358;9.752;2022-12-28T05:14:56;100609.00;;;16.45;37.70
16613;BME280;8419;52.358;9.752;2022-12-28T05:17:42;100597.00;;;16.43;37.75
16613;BME280;8419;52.358;9.752;2022-12-28T05:20:27;100605.00;;;16.43;37.83
16613;BME280;8419;52.358;9.752;2022-12-28T05:23:13;100606.00;;;16.45;37.87
16613;BME280;8419;52.358;9.752;2022-12-28T05:25:58;100601.00;;;16.47;37.89
16613;BME280;8419;52.358;9.752;2022-12-28T05:28:44;100588.00;;;16.53;37.84
16613;BME280;8419;52.358;9.752;2022-12-28T05:31:29;100597.00;;;16.60;37.79
16613;BME280;8419;52.358;9.752;2022-12-28T05:34:14;100596.00;;;16.58;37.87
16613;BME280;8419;52.358;9.752;2022-12-28T05:36:59;100589.00;;;16.60;37.92
16613;BME280;8419;52.358;9.752;2022-12-28T05:39:45;100593.00;;;16.72;37.81
16613;BME280;8419;52.358;9.752;2022-12-28T05:42:31;100582.00;;;16.78;37.77
16613;BME280;8419;52.358;9.752;2022-12-28T05:45:16;100580.00;;;16.85;37.71
16613;BME280;8419;52.358;9.752;2022-12-28T05:48:01;100581.00;;;16.84;37.80
16613;BME280;8419;52.358;9.752;2022-12-28T05:50:47;100572.00;;;16.88;37.79
16613;BME280;8419;52.358;9.752;2022-12-28T05:53:32;100580.00;;;16.84;37.95
16613;BME280;8419;52.358;9.752;2022-12-28T05:56:19;100570.00;;;16.81;38.06
16613;BME280;8419;52.358;9.752;2022-12-28T05:59:06;100567.00;;;16.85;38.07
16613;BME280;8419;52.358;9.752;2022-12-28T06:01:53;100565.00;;;16.76;38.27
16613;BME280;8419;52.358;9.752;2022-12-28T06:04:37;100557.00;;;16.70;38.45
16613;BME280;8419;52.358;9.752;2022-12-28T06:07:23;100551.00;;;16.76;38.38
16613;BME280;8419;52.358;9.752;2022-12-28T06:10:09;100549.00;;;16.76;38.38
16613;BME280;8419;52.358;9.752;2022-12-28T06:12:54;100535.00;;;16.79;38.38
16613;BME280;8419;52.358;9.752;2022-12-28T06:15:40;100553.00;;;16.77;38.43
16613;BME280;8419;52.358;9.752;2022-12-28T06:18:28;100546.00;;;16.70;38.63
16613;BME280;8419;52.358;9.752;2022-12-28T06:21:14;100544.00;;;16.72;38.66
16613;BME280;8419;52.358;9.752;2022-12-28T06:24:01;100551.00;;;16.71;38.71
16613;BME280;8419;52.358;9.752;2022-12-28T06:26:46;100541.00;;;16.71;38.74
16613;BME280;8419;52.358;9.752;2022-12-28T06:29:32;100521.00;;;16.71;38.79
16613;BME280;8419;52.358;9.752;2022-12-28T06:32:17;100521.00;;;16.63;38.95
16613;BME280;8419;52.358;9.752;2022-12-28T06:35:03;100514.00;;;16.58;39.09
16613;BME280;8419;52.358;9.752;2022-12-28T06:37:48;100515.00;;;16.69;39.01
16613;BME280;8419;52.358;9.752;2022-12-28T06:40:34;100500.00;;;16.68;39.07
16613;BME280;8419;52.358;9.752;2022-12-28T06:43:19;100505.00;;;16.68;39.13
16613;BME280;8419;52.358;9.752;2022-12-28T06:46:05;100520.00;;;16.67;39.25
16613;BME280;8419;52.358;9.752;2022-12-28T06:48:50;100495.00;;;16.62;39.42
16613;BME280;8419;52.358;9.752;2022-12-28T06:51:37;100513.00;;;16.69;39.37
16613;BME280;8419;52.358;9.752;2022-12-28T06:54:25;100511.00;;;16.62;39.55
16613;BME280;8419;52.358;9.752;2022-12-28T06:57:10;100503.00;;;16.57;39.73
16613;BME280;8419;52.358;9.752;2022-12-28T06:59:56;100500.00;;;16.55;39.90
16613;BME280;8419;52.358;9.752;2022-12-28T07:02:41;100512.00;;;16.56;39.97
16613;BME280;8419;52.358;9.752;2022-12-28T07:05:27;100520.00;;;16.60;39.99
16613;BME280;8419;52.358;9.752;2022-12-28T07:08:13;100520.00;;;16.64;39.98
16613;BME280;8419;52.358;9.752;2022-12-28T07:11:02;100520.00;;;16.69;39.97
16613;BME280;8419;52.358;9.752;2022-12-28T07:13:48;100520.00;;;16.70;40.04
16613;BME280;8419;52.358;9.752;2022-12-28T07:16:33;100514.00;;;16.65;40.19
16613;BME280;8419;52.358;9.752;2022-12-28T07:19:18;100508.00;;;16.63;40.22
16613;BME280;8419;52.358;9.752;2022-12-28T07:22:04;100507.00;;;16.67;40.26
16613;BME280;8419;52.358;9.752;2022-12-28T07:24:49;100510.00;;;16.59;40.49
16613;BME280;8419;52.358;9.752;2022-12-28T07:27:35;100502.00;;;16.63;40.52
16613;BME280;8419;52.358;9.752;2022-12-28T07:30:20;100493.00;;;16.64;40.55
16613;BME280;8419;52.358;9.752;2022-12-28T07:33:06;100506.00;;;16.67;40.55
16613;BME280;8419;52.358;9.752;2022-12-28T07:35:52;100506.00;;;16.80;40.40
16613;BME280;8419;52.358;9.752;2022-12-28T07:38:37;100492.00;;;16.72;40.55
16613;BME280;8419;52.358;9.752;2022-12-28T07:41:25;100495.00;;;16.74;40.62
16613;BME280;8419;52.358;9.752;2022-12-28T07:44:11;100488.00;;;16.75;40.71
16613;BME280;8419;52.358;9.752;2022-12-28T07:46:57;100492.00;;;16.79;40.67
16613;BME280;8419;52.358;9.752;2022-12-28T07:49:42;100491.00;;;16.82;40.72
16613;BME280;8419;52.358;9.752;2022-12-28T07:52:28;100488.00;;;16.86;40.70
16613;BME280;8419;52.358;9.752;2022-12-28T07:55:14;100499.00;;;16.86;40.75
16613;BME280;8419;52.358;9.752;2022-12-28T07:57:59;100487.00;;;16.89;40.76
16613;BME280;8419;52.358;9.752;2022-12-28T08:00:44;100493.00;;;16.92;40.72
16613;BME280;8419;52.358;9.752;2022-12-28T08:03:31;100479.00;;;16.93;40.75
16613;BME280;8419;52.358;9.752;2022-12-28T08:06:18;100501.00;;;16.98;40.73
16613;BME280;8419;52.358;9.752;2022-12-28T08:09:05;100504.00;;;16.97;40.81
16613;BME280;8419;52.358;9.752;2022-12-28T08:11:51;100494.00;;;17.00;40.79
16613;BME280;8419;52.358;9.752;2022-12-28T08:14:36;100496.00;;;16.97;40.93
16613;BME280;8419;52.358;9.752;2022-12-28T08:17:24;100496.00;;;17.00;40.89
16613;BME280;8419;52.358;9.752;2022-12-28T08:20:10;100494.00;;;17.05;40.84
16613;BME280;8419;52.358;9.752;2022-12-28T08:22:55;100492.00;;;17.04;40.94
16613;BME280;8419;52.358;9.752;2022-12-28T08:25:40;100487.00;;;17.03;41.03
16613;BME280;8419;52.358;9.752;2022-12-28T08:28:26;100484.00;;;17.09;40.96
16613;BME280;8419;52.358;9.752;2022-12-28T08:31:13;100496.00;;;17.07;41.06
16613;BME280;8419;52.358;9.752;2022-12-28T08:34:00;100481.00;;;17.17;40.92
16613;BME280;8419;52.358;9.752;2022-12-28T08:36:46;100492.00;;;17.03;41.28
16613;BME280;8419;52.358;9.752;2022-12-28T08:39:31;100479.00;;;17.12;41.17
16613;BME280;8419;52.358;9.752;2022-12-28T08:42:16;100496.00;;;17.16;41.14
16613;BME280;8419;52.358;9.752;2022-12-28T08:45:04;100496.00;;;17.26;41.05
16613;BME280;8419;52.358;9.752;2022-12-28T08:47:49;100499.00;;;17.24;41.12
16613;BME280;8419;52.358;9.752;2022-12-28T08:50:34;100494.00;;;17.31;41.07
16613;BME280;8419;52.358;9.752;2022-12-28T08:53:19;100498.00;;;17.39;40.93
16613;BME280;8419;52.358;9.752;2022-12-28T08:56:10;100492.00;;;17.46;40.85
16613;BME280;8419;52.358;9.752;2022-12-28T08:58:56;100491.00;;;17.50;40.83
16613;BME280;8419;52.358;9.752;2022-12-28T09:01:42;100489.00;;;17.52;40.84
16613;BME280;8419;52.358;9.752;2022-12-28T09:04:27;100487.00;;;17.39;41.13
16613;BME280;8419;52.358;9.752;2022-12-28T09:07:13;100485.00;;;17.48;41.04
16613;BME280;8419;52.358;9.752;2022-12-28T09:09:58;100489.00;;;17.53;40.98
16613;BME280;8419;52.358;9.752;2022-12-28T09:12:43;100485.00;;;17.60;40.90
16613;BME280;8419;52.358;9.752;2022-12-28T09:15:30;100497.00;;;17.62;40.90
16613;BME280;8419;52.358;9.752;2022-12-28T09:18:15;100489.00;;;17.63;40.93
16613;BME280;8419;52.358;9.752;2022-12-28T09:21:05;100503.00;;;17.68;40.83
16613;BME280;8419;52.358;9.752;2022-12-28T09:23:51;100499.00;;;17.72;40.79
16613;BME280;8419;52.358;9.752;2022-12-28T09:26:37;100496.00;;;17.78;40.71
16613;BME280;8419;52.358;9.752;2022-12-28T09:29:22;100493.00;;;17.85;40.63
16613;BME280;8419;52.358;9.752;2022-12-28T09:32:08;100492.00;;;17.86;40.65
16613;BME280;8419;52.358;9.752;2022-12-28T09:34:53;100491.00;;;17.90;40.58
16613;BME280;8419;52.358;9.752;2022-12-28T09:37:38;100489.00;;;17.89;40.59
16613;BME280;8419;52.358;9.752;2022-12-28T09:40:23;100500.00;;;17.90;40.59
16613;BME280;8419;52.358;9.752;2022-12-28T09:43:10;100497.00;;;17.89;40.67
16613;BME280;8419;52.358;9.752;2022-12-28T09:45:57;100500.00;;;17.95;40.60
16613;BME280;8419;52.358;9.752;2022-12-28T09:48:42;100507.00;;;17.96;40.64
16613;BME280;8419;52.358;9.752;2022-12-28T09:51:33;100503.00;;;18.04;40.60
16613;BME280;8419;52.358;9.752;2022-12-28T09:54:19;100499.00;;;18.04;40.60
16613;BME280;8419;52.358;9.752;2022-12-28T09:57:06;100494.00;;;18.04;40.66
16613;BME280;8419;52.358;9.752;2022-12-28T09:59:53;100498.00;;;18.13;40.51
16613;BME280;8419;52.358;9.752;2022-12-28T10:02:40;100494.00;;;18.21;40.50
16613;BME280;8419;52.358;9.752;2022-12-28T10:05:26;100490.00;;;18.31;40.39
16613;BME280;8419;52.358;9.752;2022-12-28T10:08:13;100487.00;;;18.31;40.38
16613;BME280;8419;52.358;9.752;2022-12-28T10:11:01;100485.00;;;18.34;40.35
16613;BME280;8419;52.358;9.752;2022-12-28T10:13:49;100491.00;;;18.39;40.34
16613;BME280;8419;52.358;9.752;2022-12-28T10:16:38;100474.00;;;18.45;40.27
16613;BME280;8419;52.358;9.752;2022-12-28T10:19:25;100473.00;;;18.52;40.21
16613;BME280;8419;52.358;9.752;2022-12-28T10:22:13;100476.00;;;18.59;40.16
16613;BME280;8419;52.358;9.752;2022-12-28T10:25:01;100472.00;;;18.65;40.11
16613;BME280;8419;52.358;9.752;2022-12-28T10:27:47;100459.00;;;18.81;39.91
16613;BME280;8419;52.358;9.752;2022-12-28T10:30:32;100462.00;;;18.86;39.80
16613;BME280;8419;52.358;9.752;2022-12-28T10:33:28;100474.00;;;18.91;39.75
16613;BME280;8419;52.358;9.752;2022-12-28T10:36:14;100470.00;;;18.89;39.78
16613;BME280;8419;52.358;9.752;2022-12-28T10:39:00;100459.00;;;18.95;39.83
16613;BME280;8419;52.358;9.752;2022-12-28T10:41:47;100465.00;;;18.94;39.84
16613;BME280;8419;52.358;9.752;2022-12-28T10:44:35;100459.00;;;18.97;39.83
16613;BME280;8419;52.358;9.752;2022-12-28T10:47:28;100458.00;;;18.96;39.81
16613;BME280;8419;52.358;9.752;2022-12-28T10:50:42;100456.00;;;18.95;39.85
16613;BME280;8419;52.358;9.752;2022-12-28T10:53:39;100456.00;;;18.93;39.87
16613;BME280;8419;52.358;9.752;2022-12-28T10:56:27;100457.00;;;18.83;39.93
16613;BME280;8419;52.358;9.752;2022-12-28T10:59:21;100451.00;;;18.78;39.99
16613;BME280;8419;52.358;9.752;2022-12-28T11:02:23;100446.00;;;18.75;40.05
16613;BME280;8419;52.358;9.752;2022-12-28T11:05:19;100460.00;;;18.73;40.08
16613;BME280;8419;52.358;9.752;2022-12-28T11:08:05;100452.00;;;18.72;40.07
16613;BME280;8419;52.358;9.752;2022-12-28T11:10:56;100448.00;;;18.71;40.07
16613;BME280;8419;52.358;9.752;2022-12-28T11:13:42;100448.00;;;18.73;40.05
16613;BME280;8419;52.358;9.752;2022-12-28T11:16:32;100443.00;;;18.76;40.00
16613;BME280;8419;52.358;9.752;2022-12-28T11:19:20;100448.00;;;18.70;40.15
16613;BME280;8419;52.358;9.752;2022-12-28T11:22:09;100446.00;;;18.70;40.20
16613;BME280;8419;52.358;9.752;2022-12-28T11:24:56;100442.00;;;18.74;40.15
16613;BME280;8419;52.358;9.752;2022-12-28T11:27:43;100434.00;;;18.81;40.10
16613;BME280;8419;52.358;9.752;2022-12-28T11:30:32;100433.00;;;18.82;40.14
16613;BME280;8419;52.358;9.752;2022-12-28T11:33:27;100438.00;;;18.78;40.20
16613;BME280;8419;52.358;9.752;2022-12-28T11:36:15;100427.00;;;18.76;40.31
16613;BME280;8419;52.358;9.752;2022-12-28T11:39:30;100433.00;;;18.75;40.34
16613;BME280;8419;52.358;9.752;2022-12-28T11:42:51;100429.00;;;18.73;40.46
16613;BME280;8419;52.358;9.752;2022-12-28T11:45:53;100426.00;;;18.75;40.44
16613;BME280;8419;52.358;9.752;2022-12-28T11:48:56;100420.00;;;18.75;40.47
16613;BME280;8419;52.358;9.752;2022-12-28T11:51:42;100411.00;;;18.68;40.64
16613;BME280;8419;52.358;9.752;2022-12-28T11:54:38;100416.00;;;18.67;40.66
16613;BME280;8419;52.358;9.752;2022-12-28T11:57:34;100415.00;;;18.63;40.85
16613;BME280;8419;52.358;9.752;2022-12-28T12:00:47;100409.00;;;18.54;40.96
16613;BME280;8419;52.358;9.752;2022-12-28T12:04:14;100401.00;;;18.29;41.54
16613;BME280;8419;52.358;9.752;2022-12-28T12:07:12;100402.00;;;18.48;41.26
16613;BME280;8419;52.358;9.752;2022-12-28T12:10:34;100408.00;;;18.50;41.29
16613;BME280;8419;52.358;9.752;2022-12-28T12:13:40;100409.00;;;18.48;41.41
16613;BME280;8419;52.358;9.752;2022-12-28T12:16:32;100400.00;;;18.50;41.44
16613;BME280;8419;52.358;9.752;2022-12-28T12:19:22;100408.00;;;18.66;41.16
16613;BME280;8419;52.358;9.752;2022-12-28T12:22:14;100390.00;;;18.67;41.16
16613;BME280;8419;52.358;9.752;2022-12-28T12:25:06;100396.00;;;18.67;41.22
16613;BME280;8419;52.358;9.752;2022-12-28T12:27:55;100396.00;;;18.67;41.27
16613;BME280;8419;52.358;9.752;2022-12-28T12:30:42;100395.00;;;18.73;41.23
16613;BME280;8419;52.358;9.752;2022-12-28T12:33:33;100386.00;;;18.74;41.24
16613;BME280;8419;52.358;9.752;2022-12-28T12:36:58;100381.00;;;18.71;41.35
16613;BME280;8419;52.358;9.752;2022-12-28T12:40:00;100387.00;;;18.75;41.29
16613;BME280;8419;52.358;9.752;2022-12-28T12:42:58;100393.00;;;18.65;41.59
16613;BME280;8419;52.358;9.752;2022-12-28T12:45:53;100388.00;;;18.59;41.75
16613;BME280;8419;52.358;9.752;2022-12-28T12:52:10;100383.00;;;18.56;41.93
16613;BME280;8419;52.358;9.752;2022-12-28T12:55:10;100384.00;;;18.65;41.77
16613;BME280;8419;52.358;9.752;2022-12-28T12:58:03;100382.00;;;18.46;42.19
16613;BME280;8419;52.358;9.752;2022-12-28T13:01:07;100376.00;;;18.52;42.13
16613;BME280;8419;52.358;9.752;2022-12-28T13:04:05;100369.00;;;18.54;42.15
16613;BME280;8419;52.358;9.752;2022-12-28T13:06:55;100368.00;;;18.55;42.22
16613;BME280;8419;52.358;9.752;2022-12-28T13:09:42;100359.00;;;18.56;42.26
16613;BME280;8419;52.358;9.752;2022-12-28T13:12:27;100351.00;;;18.53;42.41
16613;BME280;8419;52.358;9.752;2022-12-28T13:15:16;100356.00;;;18.66;42.20
16613;BME280;8419;52.358;9.752;2022-12-28T13:18:04;100352.00;;;18.68;42.29
16613;BME280;8419;52.358;9.752;2022-12-28T13:20:55;100345.00;;;18.75;42.19
16613;BME280;8419;52.358;9.752;2022-12-28T13:23:43;100340.00;;;18.69;42.40
16613;BME280;8419;52.358;9.752;2022-12-28T13:26:30;100332.00;;;18.69;42.42
16613;BME280;8419;52.358;9.752;2022-12-28T13:29:21;100324.00;;;18.69;42.45
16613;BME280;8419;52.358;9.752;2022-12-28T13:32:24;100336.00;;;18.78;42.29
16613;BME280;8419;52.358;9.752;2022-12-28T13:35:18;100341.00;;;18.76;42.46
16613;BME280;8419;52.358;9.752;2022-12-28T13:38:12;100328.00;;;18.76;42.47
16613;BME280;8419;52.358;9.752;2022-12-28T13:40:57;100329.00;;;18.75;42.52
16613;BME280;8419;52.358;9.752;2022-12-28T13:47:08;100323.00;;;18.94;42.26
16613;BME280;8419;52.358;9.752;2022-12-28T13:49:58;100323.00;;;18.94;42.21
16613;BME280;8419;52.358;9.752;2022-12-28T13:52:49;100323.00;;;18.97;42.15
16613;BME280;8419;52.358;9.752;2022-12-28T13:55:40;100313.00;;;18.99;42.18
16613;BME280;8419;52.358;9.752;2022-12-28T13:58:31;100324.00;;;18.99;42.20
16613;BME280;8419;52.358;9.752;2022-12-28T14:01:20;100331.00;;;19.04;42.15
16613;BME280;8419;52.358;9.752;2022-12-28T14:04:10;100323.00;;;19.07;42.05
16613;BME280;8419;52.358;9.752;2022-12-28T14:06:58;100315.00;;;19.02;42.12
16613;BME280;8419;52.358;9.752;2022-12-28T14:09:45;100319.00;;;19.03;42.09
16613;BME280;8419;52.358;9.752;2022-12-28T14:12:31;100316.00;;;19.03;42.11
16613;BME280;8419;52.358;9.752;2022-12-28T14:15:17;100319.00;;;19.04;42.09
16613;BME280;8419;52.358;9.752;2022-12-28T14:18:04;100310.00;;;19.04;42.09
16613;BME280;8419;52.358;9.752;2022-12-28T14:20:52;100310.00;;;19.06;42.02
16613;BME280;8419;52.358;9.752;2022-12-28T14:23:38;100311.00;;;19.05;42.09
16613;BME280;8419;52.358;9.752;2022-12-28T14:26:23;100307.00;;;19.10;41.96
16613;BME280;8419;52.358;9.752;2022-12-28T14:29:12;100305.00;;;19.10;41.96
16613;BME280;8419;52.358;9.752;2022-12-28T14:32:01;100307.00;;;19.15;41.90
16613;BME280;8419;52.358;9.752;2022-12-28T14:34:47;100302.00;;;19.13;41.91
16613;BME280;8419;52.358;9.752;2022-12-28T14:37:37;100312.00;;;19.13;41.90
16613;BME280;8419;52.358;9.752;2022-12-28T14:40:28;100305.00;;;19.06;42.29
16613;BME280;8419;52.358;9.752;2022-12-28T14:43:21;100324.00;;;19.20;41.89
16613;BME280;8419;52.358;9.752;2022-12-28T14:46:15;100309.00;;;19.27;41.74
16613;BME280;8419;52.358;9.752;2022-12-28T14:49:39;100309.00;;;19.24;41.77
16613;BME280;8419;52.358;9.752;2022-12-28T14:52:34;100311.00;;;19.25;41.79
16613;BME280;8419;52.358;9.752;2022-12-28T14:55:26;100311.00;;;19.22;41.74
16613;BME280;8419;52.358;9.752;2022-12-28T14:58:17;100305.00;;;19.22;41.77
16613;BME280;8419;52.358;9.752;2022-12-28T15:01:06;100304.00;;;19.26;41.71
16613;BME280;8419;52.358;9.752;2022-12-28T15:03:54;100307.00;;;19.29;41.61
16613;BME280;8419;52.358;9.752;2022-12-28T15:06:40;100293.00;;;19.29;41.64